Okanogan, Washington
Current Conditions -  °F | °C
As of 4:53 AM on Thursday 27 Nov 2014 (Local Time) from KOMK Reporting Station
Clear Clear  
Wind Chill: 23°   Ceiling: Unl
Heat Index: 35°   Visibility: 10mi
Dew Point: 33°   Wind: 23mph
Humidity: 92%   Direction: 190°S
Pressure: 29.8"   Gusts: 29mph
Location:  48.36°N, 119.58°W
Report Text: KOMK 271253Z AUTO 19020G25KT 10SM CLR 02/01 A2980 RMK AO2 SLP102 T00170006
Loading
Personal Weather Stations






























Interactive Weather Map New forecast layout! Learn more

10-Day Weather Forecast

Advertisements
Track Severe Weather on mobile